Disclaimer

Please do not use the information listed here in-flight or in-navigation, as they are not provided to us by the airports but are provided by volunteers, so they might be outdated.

Search


Regions


Airport information page

Radio informations:
RIO BRANCO TWR - 118.7 MHz
RIO BRANCO APP - 119.9 MHz

Airport informations:
Latitude: 09° 52' 08.97" S
Longitude: 067° 53' 38.66" W
Elevation: 633 feet - 193 meters
Operating hours: 24 hour operations
Operating agency: Civil government, landing fees and diplomatic clearance may be required
Timezone: UTC-5(-4DT)
Fuel: Jet A1, without icing nhibitor.

100/130 octane gasoline, leaded, MIL-L-5572F (GREEN)

Runway information:
06/24 - 7080 x 148 feet< - >2158 x 45 meters

Recent METARs:
SBRB 201400Z 22003KT 9999 BKN008 26/25 Q1014
SBRB 201400Z 22003KT 9999 BKN008 26/25 Q1014
SBRB 201500Z 21005KT 9999 BKN009 26/25 Q1014

Airport on the map: